createdAt,value
2023-04-29T00:02:08.824Z,95265.31
2023-04-29T00:04:38.543Z,95269.31
2023-04-29T00:07:09.101Z,95270.66
2023-04-29T00:09:38.753Z,95263.69
2023-04-29T00:12:08.432Z,95266.13
2023-04-29T00:14:37.938Z,95268.78
2023-04-29T00:17:08.776Z,95265.03
2023-04-29T00:19:38.224Z,95265.56
2023-04-29T00:22:07.856Z,95257.53
2023-04-29T00:24:37.521Z,95255.09
2023-04-29T00:27:06.948Z,95247.88
2023-04-29T00:29:36.754Z,95252.97
2023-04-29T00:32:08.795Z,95260.78
2023-04-29T00:34:38.231Z,95255.13
2023-04-29T00:37:07.659Z,95254.88
2023-04-29T00:39:37.204Z,95255.69
2023-04-29T00:42:06.836Z,95257.84
2023-04-29T00:44:36.331Z,95248.16
2023-04-29T00:47:06.033Z,95250.31
2023-04-29T00:49:36.873Z,95239.31
2023-04-29T00:52:08.108Z,95247.38
2023-04-29T00:54:38.769Z,95244.94
2023-04-29T00:57:08.851Z,95242.53
2023-04-29T00:59:38.988Z,95232.31
2023-04-29T01:02:08.459Z,95239.84
2023-04-29T01:04:39.533Z,95237.97
2023-04-29T01:07:17.430Z,95243.88
2023-04-29T01:10:03.237Z,95240.91
2023-04-29T01:12:42.544Z,95260.53
2023-04-29T01:15:26.167Z,95243.34
2023-04-29T01:18:02.389Z,95251.94
2023-04-29T01:20:34.936Z,95249.25
2023-04-29T01:23:04.578Z,95253.28
2023-04-29T01:25:35.809Z,95254.06
2023-04-29T01:28:24.604Z,95259.72
2023-04-29T01:31:06.389Z,95250.03
2023-04-29T01:33:52.351Z,95255.94
2023-04-29T01:36:36.997Z,95254.06
2023-04-29T01:39:16.053Z,95250.56
2023-04-29T01:41:59.617Z,95252.69
2023-04-29T01:44:34.167Z,95252.97
2023-04-29T01:47:04.962Z,95255.94
2023-04-29T01:49:41.571Z,95252.16
2023-04-29T01:52:11.106Z,95249.75
2023-04-29T01:54:41.943Z,95251.91
2023-04-29T01:57:12.962Z,95254.31
2023-04-29T02:00:03.320Z,95261.84
2023-04-29T02:02:49.757Z,95249.75
2023-04-29T02:05:42.138Z,95251.38
2023-04-29T02:08:11.613Z,95257.28
2023-04-29T02:10:54.885Z,95255.94
2023-04-29T02:13:45.882Z,95248.44
2023-04-29T02:16:17.669Z,95253.81
2023-04-29T02:18:54.904Z,95261.31
2023-04-29T02:21:24.724Z,95246.78
2023-04-29T02:23:55.545Z,95252.16
2023-04-29T02:26:26.904Z,95243.59
2023-04-29T02:28:59.982Z,95251.66
2023-04-29T02:31:29.950Z,95249.50
2023-04-29T02:34:00.368Z,95253.25
2023-04-29T02:36:29.865Z,95246.28
2023-04-29T02:39:00.564Z,95250.03
2023-04-29T02:41:30.047Z,95247.06
2023-04-29T02:44:01.296Z,95249.25
2023-04-29T02:46:32.804Z,95257.53
2023-04-29T02:49:02.704Z,95254.06
2023-04-29T02:51:32.384Z,95258.63
2023-04-29T02:54:02.266Z,95267.22
2023-04-29T02:56:31.726Z,95254.84
2023-04-29T02:59:02.523Z,95260.00
2023-04-29T03:01:32.363Z,95260.81
2023-04-29T03:04:02.157Z,95262.13
2023-04-29T03:06:32.566Z,95257.84
2023-04-29T03:09:02.118Z,95250.31
2023-04-29T03:11:31.617Z,95263.22
2023-04-29T03:14:02.732Z,95260.25
2023-04-29T03:16:32.807Z,95255.97
2023-04-29T03:19:02.376Z,95264.81
2023-04-29T03:21:31.852Z,95262.94
2023-04-29T03:24:01.773Z,95260.25
2023-04-29T03:26:36.228Z,95258.09
2023-04-29T03:29:08.310Z,95257.03
2023-04-29T03:31:38.056Z,95248.69
2023-04-29T03:34:07.584Z,95247.09
2023-04-29T03:36:41.179Z,95249.78
2023-04-29T03:39:11.902Z,95250.59
2023-04-29T03:41:41.500Z,95247.38
2023-04-29T03:44:12.998Z,95251.13
2023-04-29T03:46:42.683Z,95249.75
2023-04-29T03:49:12.238Z,95257.81
2023-04-29T03:51:41.870Z,95253.25
2023-04-29T03:54:16.894Z,95252.97
2023-04-29T03:56:46.565Z,95259.69
2023-04-29T03:59:17.422Z,95259.69
2023-04-29T04:01:47.743Z,95255.66
2023-04-29T04:04:17.697Z,95264.25
2023-04-29T04:06:51.596Z,95256.19
2023-04-29T04:09:23.372Z,95259.16
2023-04-29T04:11:52.859Z,95261.56
2023-04-29T04:14:24.501Z,95268.81
2023-04-29T04:16:54.794Z,95267.75
2023-04-29T04:19:24.375Z,95270.44
2023-04-29T04:21:53.979Z,95270.97
2023-04-29T04:24:24.110Z,95268.03
2023-04-29T04:26:53.630Z,95273.41
2023-04-29T04:29:34.205Z,95264.53
2023-04-29T04:32:13.945Z,95282.00
2023-04-29T04:34:43.441Z,95277.44
2023-04-29T04:37:12.980Z,95283.88
2023-04-29T04:39:43.646Z,95289.75
2023-04-29T04:42:15.896Z,95289.47
2023-04-29T04:44:46.858Z,95288.66
2023-04-29T04:47:27.812Z,95292.69
2023-04-29T04:50:14.179Z,95288.13
2023-04-29T04:52:43.691Z,95289.72
2023-04-29T04:55:33.499Z,95287.03
2023-04-29T04:58:03.395Z,95291.56
2023-04-29T05:00:34.259Z,95292.41
2023-04-29T05:03:03.925Z,95291.06
2023-04-29T05:05:35.169Z,95303.69
2023-04-29T05:08:05.057Z,95296.44
2023-04-29T05:10:40.469Z,95309.34
2023-04-29T05:13:10.468Z,95315.78
2023-04-29T05:15:41.995Z,95318.19
2023-04-29T05:18:12.931Z,95322.22
2023-04-29T05:20:45.394Z,95320.34
2023-04-29T06:34:12.486Z,95363.25
2023-04-29T06:36:53.058Z,95364.00
2023-04-29T06:39:34.912Z,95361.81
2023-04-29T06:42:24.718Z,95360.91
2023-04-29T06:45:14.508Z,95364.28
2023-04-29T06:47:58.563Z,95367.22
2023-04-29T06:50:50.354Z,95367.56
2023-04-29T06:53:20.136Z,95362.66
2023-04-29T06:55:50.178Z,95361.50
2023-04-29T06:58:20.791Z,95366.72
2023-04-29T07:00:53.436Z,95359.88
2023-04-29T07:03:25.426Z,95362.47
2023-04-29T07:05:56.426Z,95364.75
2023-04-29T07:08:26.468Z,95369.59
2023-04-29T07:10:57.322Z,95373.34
2023-04-29T07:13:27.226Z,95368.59
2023-04-29T07:15:56.929Z,95374.13
2023-04-29T07:18:26.384Z,95369.38
2023-04-29T07:21:02.247Z,95374.03
2023-04-29T07:23:31.820Z,95381.81
2023-04-29T07:26:10.473Z,95380.94
2023-04-29T07:28:40.380Z,95373.31
2023-04-29T07:31:12.291Z,95370.78
2023-04-29T07:33:41.808Z,95375.03
2023-04-29T07:36:14.210Z,95375.22
2023-04-29T07:38:43.780Z,95380.38
2023-04-29T07:41:13.854Z,95375.94
2023-04-29T07:43:43.591Z,95381.94
2023-04-29T07:46:13.179Z,95384.31
2023-04-29T07:48:42.743Z,95388.75
2023-04-29T07:51:16.575Z,95383.13
2023-04-29T07:53:46.137Z,95386.25
2023-04-29T07:56:16.287Z,95372.84
2023-04-29T07:58:45.989Z,95385.97
2023-04-29T08:01:15.665Z,95383.97
2023-04-29T08:03:45.817Z,95379.75
2023-04-29T08:06:20.736Z,95380.84
2023-04-29T08:08:50.313Z,95383.06
2023-04-29T08:11:24.581Z,95377.13
2023-04-29T08:13:54.762Z,95379.34
2023-04-29T08:16:26.189Z,95377.13
2023-04-29T08:18:56.168Z,95376.91
2023-04-29T08:21:27.672Z,95370.44
2023-04-29T08:23:57.208Z,95362.78
2023-04-29T08:26:27.402Z,95378.78
2023-04-29T08:28:56.841Z,95379.38
2023-04-29T08:31:26.936Z,95376.09
2023-04-29T08:33:58.620Z,95386.03
2023-04-29T08:36:29.959Z,95383.72
2023-04-29T08:38:59.550Z,95389.94
2023-04-29T08:41:29.024Z,95391.53
2023-04-29T08:44:00.791Z,95387.31
2023-04-29T08:46:30.516Z,95375.72
2023-04-29T08:49:01.585Z,95381.13
2023-04-29T08:51:34.555Z,95375.50
2023-04-29T08:54:04.170Z,95380.00
2023-04-29T08:56:34.679Z,95393.78
2023-04-29T08:59:06.672Z,95393.28
2023-04-29T09:01:41.920Z,95394.38
2023-04-29T09:04:31.283Z,95388.84
2023-04-29T09:07:03.274Z,95392.16
2023-04-29T09:09:34.098Z,95384.91
2023-04-29T09:12:03.693Z,95384.59
2023-04-29T09:14:34.827Z,95382.22
2023-04-29T09:17:04.435Z,95380.25
2023-04-29T09:19:36.221Z,95377.47
2023-04-29T09:22:08.290Z,95371.44
2023-04-29T09:24:38.524Z,95372.69
2023-04-29T09:27:09.215Z,95369.91
2023-04-29T09:29:39.303Z,95366.88
2023-04-29T09:32:22.255Z,95370.03
2023-04-29T09:34:51.986Z,95365.88
2023-04-29T09:37:29.602Z,95366.56
2023-04-29T09:39:59.194Z,95366.78
2023-04-29T09:42:28.674Z,95367.94
2023-04-29T09:44:58.090Z,95370.50
2023-04-29T09:47:32.878Z,95372.56
2023-04-29T09:50:16.283Z,95371.94
2023-04-29T09:52:48.082Z,95373.06
2023-04-29T09:55:17.963Z,95370.56
2023-04-29T09:57:47.415Z,95378.88
2023-04-29T10:00:17.656Z,95381.75
2023-04-29T10:02:50.049Z,95376.22
2023-04-29T10:05:23.113Z,95378.84
2023-04-29T10:07:54.200Z,95369.97
2023-04-29T10:10:25.701Z,95369.19
2023-04-29T10:12:56.167Z,95382.69
2023-04-29T10:15:37.686Z,95381.19
2023-04-29T10:18:21.579Z,95382.94
2023-04-29T10:20:52.000Z,95385.00
2023-04-29T10:23:26.938Z,95383.69
2023-04-29T10:25:58.771Z,95368.75
2023-04-29T10:28:32.666Z,95365.41
2023-04-29T10:31:04.171Z,95362.69
2023-04-29T10:33:34.530Z,95364.19
2023-04-29T10:36:05.176Z,95366.78
2023-04-29T10:38:44.039Z,95363.75
2023-04-29T10:41:25.626Z,95376.22
2023-04-29T10:43:56.142Z,95375.47
2023-04-29T10:46:27.813Z,95366.47
2023-04-29T10:49:02.620Z,95365.91
2023-04-29T10:51:35.556Z,95367.41
2023-04-29T10:54:11.697Z,95363.13
2023-04-29T10:56:50.318Z,95359.34
2023-04-29T10:59:48.901Z,95357.13
2023-04-29T11:02:20.005Z,95360.66
2023-04-29T11:05:09.661Z,95372.47
2023-04-29T11:07:39.301Z,95364.31
2023-04-29T11:10:10.872Z,95363.22
2023-04-29T11:12:40.393Z,95369.91
2023-04-29T11:15:11.538Z,95358.34
2023-04-29T11:17:46.560Z,95357.34
2023-04-29T11:20:16.688Z,95356.19
2023-04-29T11:22:53.602Z,95356.09
2023-04-29T11:25:28.466Z,95360.44
2023-04-29T11:27:59.546Z,95366.13
2023-04-29T11:30:31.359Z,95368.06
2023-04-29T11:33:01.392Z,95372.94
2023-04-29T11:35:32.356Z,95375.78
2023-04-29T11:38:02.001Z,95384.47
2023-04-29T11:40:34.623Z,95372.91
2023-04-29T11:43:04.601Z,95364.59
2023-04-29T11:45:38.055Z,95374.19
2023-04-29T11:48:07.649Z,95376.81
2023-04-29T11:50:37.218Z,95387.00
2023-04-29T11:53:06.727Z,95389.72
2023-04-29T11:55:37.552Z,95390.72
2023-04-29T11:58:07.146Z,95393.00
2023-04-29T12:00:36.952Z,95385.78
2023-04-29T12:03:15.227Z,95388.66
2023-04-29T12:05:49.635Z,95386.28
2023-04-29T12:08:21.675Z,95383.06
2023-04-29T12:10:53.858Z,95388.50
2023-04-29T12:13:26.449Z,95384.81
2023-04-29T12:15:57.389Z,95384.13
2023-04-29T12:18:27.795Z,95388.59
2023-04-29T12:20:58.403Z,95394.13
2023-04-29T12:23:28.053Z,95388.22
2023-04-29T12:26:01.136Z,95384.88
2023-04-29T12:28:31.019Z,95381.09
2023-04-29T12:31:01.753Z,95380.75
2023-04-29T12:33:31.692Z,95382.09
2023-04-29T12:36:02.036Z,95388.91
2023-04-29T12:38:32.779Z,95388.75
2023-04-29T12:41:04.485Z,95381.22
2023-04-29T12:43:34.835Z,95377.91
2023-04-29T12:46:06.242Z,95377.72
2023-04-29T12:48:38.679Z,95381.50
2023-04-29T12:51:11.639Z,95382.31
2023-04-29T12:53:41.258Z,95388.75
2023-04-29T12:56:14.224Z,95387.56
2023-04-29T12:58:43.793Z,95392.28
2023-04-29T13:01:16.592Z,95386.03
2023-04-29T13:03:49.632Z,95375.38
2023-04-29T13:06:19.352Z,95380.94
2023-04-29T13:08:48.806Z,95373.22
2023-04-29T13:11:20.196Z,95375.44
2023-04-29T13:13:49.729Z,95378.69
2023-04-29T13:16:19.639Z,95382.59
2023-04-29T13:19:01.828Z,95381.91
2023-04-29T13:21:38.262Z,95380.31
2023-04-29T13:24:08.371Z,95381.66
2023-04-29T13:26:39.496Z,95393.84
2023-04-29T13:29:08.945Z,95389.53
2023-04-29T13:31:38.461Z,95389.56
2023-04-29T13:34:09.517Z,95391.19
2023-04-29T13:36:39.270Z,95387.19
2023-04-29T13:39:08.897Z,95388.81
2023-04-29T13:41:43.842Z,95398.53
2023-04-29T13:44:24.912Z,95395.97
2023-04-29T13:47:01.569Z,95390.25
2023-04-29T13:50:02.024Z,95387.50
2023-04-29T13:58:20.615Z,95387.19
2023-04-29T14:00:54.280Z,95375.06
2023-04-29T14:03:35.640Z,95375.53
2023-04-29T14:06:07.306Z,95379.38
2023-04-29T14:08:36.995Z,95380.91
2023-04-29T14:11:07.192Z,95376.72
2023-04-29T14:13:38.071Z,95376.06
2023-04-29T14:16:09.432Z,95396.41
2023-04-29T14:18:39.025Z,95391.00
2023-04-29T14:21:08.910Z,95395.09
2023-04-29T14:23:38.534Z,95389.25
2023-04-29T14:26:23.175Z,95392.53
2023-04-29T14:28:59.703Z,95399.97
2023-04-29T14:31:31.794Z,95394.91
2023-04-29T14:34:01.213Z,95401.66
2023-04-29T14:36:32.563Z,95410.47
2023-04-29T23:36:27.623Z,95753.00
2023-04-29T23:38:57.219Z,95751.38
2023-04-29T23:41:26.802Z,95751.38
2023-04-29T23:44:00.885Z,95745.72
2023-04-29T23:46:30.732Z,95745.72
2023-04-29T23:49:00.323Z,95742.47
2023-04-29T23:51:32.663Z,95740.81
2023-04-29T23:54:02.136Z,95738.38
2023-04-29T23:56:33.589Z,95737.31
2023-04-29T23:59:03.063Z,95742.16
